Time;durP1;ratioP1;P1;durP2;ratioP2;P2;SDS_P1;SDS_P2;PMS_P1;PMS_P2;Temp;Humidity;BMP_temperature;BMP_pressure;BME280_temperature;BME280_humidity;BME280_pressure;Samples;Min_cycle;Max_cycle;Signal;HPM_P1;HPM_P2
2023/06/15 00:01:03;;;;;;;;;;;;;;;;;;10343016;28;19921;-76
2023/06/15 00:06:04;;;;;;;;;;;;;;;;;;10344521;28;19920;-75
2023/06/15 00:11:05;;;;;;;;;;;;;;;;;;10344242;28;19917;-76
2023/06/15 00:16:06;;;;;;;;;;;;;;;;;;10340881;28;19928;-76
2023/06/15 00:21:08;;;;;;;;;;;;;;;;;;10327219;28;20394;-76
2023/06/15 00:26:09;;;;;;;;;;;;;;;;;;10327898;28;20010;-75
2023/06/15 00:31:10;;;;;;;;;;;;;;;;;;10350705;28;19936;-76
2023/06/15 00:36:12;;;;;;;;;;;;;;;;;;10323024;28;20344;-76
2023/06/15 00:41:14;;;;;;;;;;;;;;;;;;10326021;28;19921;-76
2023/06/15 00:46:15;;;;;;;;;;;;;;;;;;10337557;28;19924;-75
2023/06/15 00:51:16;;;;;;;;;;;;;;;;;;10349580;28;20454;-77
2023/06/15 00:56:18;;;;;;;;;;;;;;;;;;10337326;28;19980;-78
2023/06/15 01:01:19;;;;;;;;;;;;;;;;;;10341014;28;20513;-78
2023/06/15 01:06:20;;;;;;;;;;;;;;;;;;10352689;28;19927;-76
2023/06/15 01:11:21;;;;;;;;;;;;;;;;;;10329365;28;19917;-76
2023/06/15 01:16:22;;;;;;;;;;;;;;;;;;10338767;28;19967;-75
2023/06/15 01:21:23;;;;;;;;;;;;;;;;;;10339551;28;19921;-77
2023/06/15 01:26:28;;;;;;;;;;;;;;;;;;10346612;28;19914;-77
2023/06/15 01:31:29;;;;;;;;;;;;;;;;;;10318298;28;20016;-76
2023/06/15 01:36:32;;;;;;;;;;;;;;;;;;10335127;28;19928;-76
2023/06/15 01:41:33;;;;;;;;;;;;;;;;;;10329756;28;19947;-76
2023/06/15 01:46:37;;;;;;;;;;;;;;;;;;10338572;28;20540;-76
2023/06/15 01:51:38;;;;;;;;;;;;;;;;;;10333558;28;19918;-75
2023/06/15 01:56:39;;;;;;;;;;;;;;;;;;10333788;28;19928;-77
2023/06/15 02:01:40;;;;;;;;;;;;;;;;;;10343848;28;19921;-75
2023/06/15 02:06:41;;;;;;;;;;;;;;;;;;10347939;28;19929;-76
2023/06/15 02:11:42;;;;;;;;;;;;;;;;;;10345375;28;20403;-76
2023/06/15 02:16:43;;;;;;;;;;;;;;;;;;10338105;28;19932;-76
2023/06/15 02:21:45;;;;;;;;;;;;;;;;;;10343752;28;19925;-76
2023/06/15 02:26:47;;;;;;;;;;;;;;;;;;10340932;28;20386;-76
2023/06/15 02:31:48;;;;;;;;;;;;;;;;;;10336247;28;19932;-76
2023/06/15 02:36:49;;;;;;;;;;;;;;;;;;10331345;28;19914;-76
2023/06/15 02:41:50;;;;;;;;;;;;;;;;;;10333154;28;20446;-77
2023/06/15 02:46:51;;;;;;;;;;;;;;;;;;10333232;28;19917;-81
2023/06/15 02:51:52;;;;;;;;;;;;;;;;;;10331154;28;20727;-76
2023/06/15 02:56:54;;;;;;;;;;;;;;;;;;10321099;28;19925;-76
2023/06/15 03:01:56;;;;;;;;;;;;;;;;;;10337473;28;19917;-77
2023/06/15 03:06:57;;;;;;;;;;;;;;;;;;10346139;28;19924;-76
2023/06/15 03:12:08;;;;;;;;;;;;;;;;;;10341409;28;19939;-76
2023/06/15 03:17:15;;;;;;;;;;;;;;;;;;10345455;28;20383;-76
2023/06/15 03:22:19;;;;;;;;;;;;;;;;;;10346621;28;20056;-75
2023/06/15 03:27:20;;;;;;;;;;;;;;;;;;10340023;28;20051;-77
2023/06/15 03:32:21;;;;;;;;;;;;;;;;;;10341541;28;19971;-76
2023/06/15 03:37:21;;;;;;;;;;;;;;;;;;10340008;28;19924;-77
2023/06/15 03:42:22;;;;;;;;;;;;;;;;;;10321839;28;19925;-76
2023/06/15 03:47:24;;;;;;;;;;;;;;;;;;10314058;28;19963;-77
2023/06/15 03:52:25;;;;;;;;;;;;;;;;;;10343850;28;20379;-77
2023/06/15 03:57:26;;;;;;;;;;;;;;;;;;10342542;28;19921;-76
2023/06/15 04:02:27;;;;;;;;;;;;;;;;;;10339581;28;20379;-77
2023/06/15 04:07:28;;;;;;;;;;;;;;;;;;10328006;28;19921;-77
2023/06/15 04:12:29;;;;;;;;;;;;;;;;;;10339512;28;19913;-76
2023/06/15 04:17:30;;;;;;;;;;;;;;;;;;10345373;28;19926;-76
2023/06/15 04:22:31;;;;;;;;;;;;;;;;;;10316794;28;19925;-76
2023/06/15 04:27:34;;;;;;;;;;;;;;;;;;10354799;28;19924;-76
2023/06/15 04:32:35;;;;;;;;;;;;;;;;;;10351253;28;20827;-76
2023/06/15 04:37:42;;;;;;;;;;;;;;;;;;10338983;28;20862;-77
2023/06/15 04:42:44;;;;;;;;;;;;;;;;;;10324404;28;19925;-78
2023/06/15 04:47:47;;;;;;;;;;;;;;;;;;10333966;28;20303;-76
2023/06/15 04:52:48;;;;;;;;;;;;;;;;;;10333689;28;21232;-76
2023/06/15 04:57:49;;;;;;;;;;;;;;;;;;10323164;28;19929;-76
2023/06/15 05:02:50;;;;;;;;;;;;;;;;;;10343733;28;20016;-76
2023/06/15 05:07:51;;;;;;;;;;;;;;;;;;10326968;28;19948;-76
2023/06/15 05:12:53;;;;;;;;;;;;;;;;;;10331002;28;19913;-77
2023/06/15 05:17:55;;;;;;;;;;;;;;;;;;10325041;28;20016;-77
2023/06/15 05:22:56;;;;;;;;;;;;;;;;;;10337547;28;19980;-76
2023/06/15 05:27:57;;;;;;;;;;;;;;;;;;10336245;28;20003;-76
2023/06/15 05:32:58;;;;;;;;;;;;;;;;;;10348138;28;19929;-77
2023/06/15 05:38:00;;;;;;;;;;;;;;;;;;10341347;28;19972;-78
2023/06/15 05:43:01;;;;;;;;;;;;;;;;;;10334849;28;19921;-78
2023/06/15 05:48:02;;;;;;;;;;;;;;;;;;10333389;28;19943;-78
2023/06/15 05:53:03;;;;;;;;;;;;;;;;;;10341672;28;19921;-78
2023/06/15 05:58:05;;;;;;;;;;;;;;;;;;10351450;28;20706;-78
2023/06/15 06:03:06;;;;;;;;;;;;;;;;;;10329802;28;20822;-78
2023/06/15 06:08:14;;;;;;;;;;;;;;;;;;10334648;28;19917;-79
2023/06/15 06:13:15;;;;;;;;;;;;;;;;;;10331646;28;19921;-78
2023/06/15 06:18:16;;;;;;;;;;;;;;;;;;10332730;28;20000;-78
2023/06/15 06:23:17;;;;;;;;;;;;;;;;;;10333823;28;20461;-78
2023/06/15 06:28:18;;;;;;;;;;;;;;;;;;10334666;28;19913;-77
2023/06/15 06:33:19;;;;;;;;;;;;;;;;;;10323238;28;19925;-78
2023/06/15 06:38:20;;;;;;;;;;;;;;;;;;10338640;28;19925;-75
2023/06/15 06:43:21;;;;;;;;;;;;;;;;;;10337235;28;19964;-78
2023/06/15 06:48:22;;;;;;;;;;;;;;;;;;10328166;28;19925;-77
2023/06/15 06:53:23;;;;;;;;;;;;;;;;;;10331206;28;20001;-78
2023/06/15 06:58:24;;;;;;;;;;;;;;;;;;10338835;28;19937;-79
2023/06/15 07:03:25;;;;;;;;;;;;;;;;;;10337682;28;20778;-77
2023/06/15 07:08:26;;;;;;;;;;;;;;;;;;10331644;28;19975;-77
2023/06/15 07:13:27;;;;;;;;;;;;;;;;;;10346744;28;20212;-77
2023/06/15 07:18:28;;;;;;;;;;;;;;;;;;10328916;28;19921;-77
2023/06/15 07:23:29;;;;;;;;;;;;;;;;;;10327693;28;19917;-77
2023/06/15 07:28:30;;;;;;;;;;;;;;;;;;10335610;28;20368;-77
2023/06/15 07:33:31;;;;;;;;;;;;;;;;;;10333434;28;19929;-77
2023/06/15 07:38:32;;;;;;;;;;;;;;;;;;10337834;28;20383;-77
2023/06/15 07:43:35;;;;;;;;;;;;;;;;;;10335588;28;19923;-77
2023/06/15 07:48:36;;;;;;;;;;;;;;;;;;10335292;28;19917;-77
2023/06/15 07:53:38;;;;;;;;;;;;;;;;;;10335134;28;19929;-77
2023/06/15 07:58:39;;;;;;;;;;;;;;;;;;10336233;28;20457;-75
2023/06/15 08:03:40;;;;;;;;;;;;;;;;;;10341208;28;19968;-76
2023/06/15 08:08:42;;;;;;;;;;;;;;;;;;10331924;28;20430;-76
2023/06/15 08:13:43;;;;;;;;;;;;;;;;;;10332458;28;20291;-76
2023/06/15 08:18:44;;;;;;;;;;;;;;;;;;10340768;28;19918;-75
2023/06/15 08:23:45;;;;;;;;;;;;;;;;;;10343044;28;20003;-79
2023/06/15 08:28:46;;;;;;;;;;;;;;;;;;10343753;28;20331;-77
2023/06/15 08:33:47;;;;;;;;;;;;;;;;;;10341241;28;19929;-76
2023/06/15 08:38:48;;;;;;;;;;;;;;;;;;10341245;28;19923;-76
2023/06/15 08:43:49;;;;;;;;;;;;;;;;;;10342539;28;19971;-76
2023/06/15 08:48:50;;;;;;;;;;;;;;;;;;10355744;28;19934;-74
2023/06/15 08:53:52;;;;;;;;;;;;;;;;;;10350398;28;20015;-76
2023/06/15 08:58:53;;;;;;;;;;;;;;;;;;10331657;28;20610;-76
2023/06/15 09:03:55;;;;;;;1.85;1.48;;;;;;;;;;10347970;28;20142;-77
2023/06/15 09:08:56;;;;;;;1.88;1.50;;;;;;;;;;10330007;28;20211;-77
2023/06/15 09:13:57;;;;;;;2.67;1.50;;;;;;;;;;10343913;28;20219;-77
2023/06/15 09:18:58;;;;;;;2.45;1.25;;;;;;;;;;10345385;28;20215;-77
2023/06/15 09:24:05;;;;;;;2.75;1.30;;;;;;;;;;10337490;28;20242;-76
2023/06/15 09:29:09;;;;;;;0.98;0.98;;;;;;;;;;10355667;28;20212;-77
2023/06/15 09:34:11;;;;;;;1.60;1.52;;;;;;;;;;10340893;28;20230;-77
2023/06/15 09:39:13;;;;;;;0.88;0.88;;;;;;;;;;10334339;28;20227;-76
2023/06/15 09:44:14;;;;;;;3.20;0.90;;;;;;;;;;10346569;28;20212;-77
2023/06/15 09:49:22;;;;;;;1.85;1.67;;;;;;;;;;10325958;28;20231;-77
2023/06/15 09:54:24;;;;;;;3.40;1.02;;;;;;;;;;10333847;28;20235;-76
2023/06/15 09:59:25;;;;;;;3.55;1.30;;;;;;;;;;10344465;28;20220;-76
2023/06/15 10:04:30;;;;;;;1.50;1.48;;;;;;;;;;10332705;28;20216;-76
2023/06/15 10:09:40;;;;;;;1.30;1.15;;;;;;;;;;10354191;28;20228;-76
2023/06/15 10:15:04;;;;;;;1.00;1.00;;;;;;;;;;10345465;28;20226;-76
2023/06/15 10:20:17;;;;;;;1.10;1.10;;;;;;;;;;10318532;28;20281;-74
2023/06/15 10:25:19;;;;;;;1.33;1.13;;;;;;;;;;10354011;28;20188;-77
2023/06/15 10:30:23;;;;;;;3.03;1.30;;;;;;;;;;10339149;28;20935;-76
2023/06/15 10:35:24;;;;;;;1.20;1.10;;;;;;;;;;10349165;28;20211;-76
2023/06/15 10:40:30;;;;;;;1.15;1.15;;;;;;;;;;10339828;28;20595;-76
2023/06/15 10:45:34;;;;;;;1.73;1.13;;;;;;;;;;10338114;28;20592;-76
2023/06/15 10:50:39;;;;;;;1.25;1.25;;;;;;;;;;10333270;28;20255;-77
2023/06/15 10:55:40;;;;;;;1.30;1.08;;;;;;;;;;10342722;28;20772;-77
2023/06/15 11:00:45;;;;;;;1.48;1.00;;;;;;;;;;10336767;28;20226;-77
2023/06/15 11:05:47;;;;;;;4.13;1.10;;;;;;;;;;10341030;28;20220;-76
2023/06/15 11:10:48;;;;;;;1.30;1.30;;;;;;;;;;10332163;28;20216;-76
2023/06/15 11:16:05;;;;;;;1.17;1.17;;;;;;;;;;10346375;28;20702;-76
2023/06/15 11:21:06;;;;;;;1.00;1.00;;;;;;;;;;10343478;28;20839;-76
2023/06/15 11:26:14;;;;;;;4.78;1.58;;;;;;;;;;10340830;28;20212;-76
2023/06/15 11:31:16;;;;;;;1.10;1.10;;;;;;;;;;10341971;28;20278;-75
2023/06/15 11:36:18;;;;;;;2.30;1.65;;;;;;;;;;10337013;28;20274;-77
2023/06/15 11:41:20;;;;;;;2.63;1.27;;;;;;;;;;10344045;28;20709;-76
2023/06/15 11:46:21;;;;;;;2.63;1.20;;;;;;;;;;10337571;28;20726;-76
2023/06/15 11:51:23;;;;;;;1.25;1.25;;;;;;;;;;10340770;28;20251;-76
2023/06/15 11:56:24;;;;;;;1.25;1.13;;;;;;;;;;10320033;28;20306;-76
2023/06/15 12:01:27;;;;;;;1.52;1.23;;;;;;;;;;10326535;28;20220;-77
2023/06/15 12:06:28;;;;;;;1.50;1.40;;;;;;;;;;10340208;28;20246;-77
2023/06/15 12:11:30;;;;;;;1.45;1.35;;;;;;;;;;10326816;28;20735;-76
2023/06/15 12:16:31;;;;;;;4.03;1.20;;;;;;;;;;10335919;28;20232;-76
2023/06/15 12:21:32;;;;;;;2.65;1.10;;;;;;;;;;10339349;28;20223;-76
2023/06/15 12:26:33;;;;;;;1.35;1.35;;;;;;;;;;10335596;28;20216;-76
2023/06/15 12:31:34;;;;;;;1.35;1.20;;;;;;;;;;10334189;28;20228;-76
2023/06/15 12:36:39;;;;;;;1.33;1.30;;;;;;;;;;10340321;28;20223;-75
2023/06/15 12:41:43;;;;;;;1.33;1.33;;;;;;;;;;10345625;28;20811;-76
2023/06/15 12:46:44;;;;;;;1.63;1.30;;;;;;;;;;10342958;28;20240;-76
2023/06/15 12:51:47;;;;;;;4.13;1.27;;;;;;;;;;10347683;28;20321;-76
2023/06/15 12:56:48;;;;;;;1.42;1.25;;;;;;;;;;10340261;28;20223;-76
2023/06/15 13:01:49;;;;;;;1.45;1.25;;;;;;;;;;10324447;28;20215;-76
2023/06/15 13:06:49;;;;;;;1.42;1.33;;;;;;;;;;10333380;28;20772;-76
2023/06/15 13:11:51;;;;;;;2.15;1.40;;;;;;;;;;10339141;28;21319;-76
2023/06/15 13:16:52;;;;;;;2.25;1.48;;;;;;;;;;10357169;28;20340;-76
2023/06/15 13:21:54;;;;;;;1.80;1.70;;;;;;;;;;10351770;28;20273;-75
2023/06/15 13:26:57;;;;;;;1.50;1.50;;;;;;;;;;10347222;28;20212;-76
2023/06/15 13:32:01;;;;;;;3.08;1.83;;;;;;;;;;10349171;28;20325;-75
2023/06/15 13:37:02;;;;;;;1.70;1.60;;;;;;;;;;10356592;28;20240;-75
2023/06/15 13:42:04;;;;;;;1.42;1.40;;;;;;;;;;10338717;28;20890;-75
2023/06/15 13:47:05;;;;;;;1.58;1.35;;;;;;;;;;10343554;28;20219;-75
2023/06/15 13:52:07;;;;;;;1.10;1.10;;;;;;;;;;10351729;28;20227;-75
2023/06/15 13:57:08;;;;;;;1.10;1.10;;;;;;;;;;10325905;28;20223;-75
2023/06/15 14:02:09;;;;;;;1.45;1.30;;;;;;;;;;10336349;28;20282;-74
2023/06/15 14:07:10;;;;;;;;;;;;;;;;;;10321324;28;20150;-75
2023/06/15 14:12:11;;;;;;;;;;;;;;;;;;10313673;28;19921;-75
2023/06/15 14:17:12;;;;;;;;;;;;;;;;;;10332280;28;19933;-76
2023/06/15 14:22:13;;;;;;;;;;;;;;;;;;10335552;28;19932;-76
2023/06/15 14:27:14;;;;;;;;;;;;;;;;;;10336882;28;19917;-76
2023/06/15 14:32:15;;;;;;;;;;;;;;;;;;10292198;28;19925;-75
2023/06/15 14:37:16;;;;;;;;;;;;;;;;;;10295979;28;19937;-75
2023/06/15 14:42:17;;;;;;;;;;;;;;;;;;10310373;28;20593;-75
2023/06/15 14:47:18;;;;;;;;;;;;;;;;;;10332036;28;19940;-75
2023/06/15 14:52:18;;;;;;;;;;;;;;;;;;10347436;28;20371;-75
2023/06/15 14:57:19;;;;;;;;;;;;;;;;;;10342458;28;19921;-76
2023/06/15 15:02:21;;;;;;;;;;;;;;;;;;10339483;28;20302;-76
2023/06/15 15:07:22;;;;;;;;;;;;;;;;;;10337303;28;19921;-76
2023/06/15 15:12:23;;;;;;;;;;;;;;;;;;10338430;28;19917;-76
2023/06/15 15:17:23;;;;;;;;;;;;;;;;;;10312046;28;19928;-76
2023/06/15 15:22:24;;;;;;;;;;;;;;;;;;10347091;28;20762;-76
2023/06/15 15:27:25;;;;;;;;;;;;;;;;;;10339901;28;19927;-75
2023/06/15 15:32:26;;;;;;;;;;;;;;;;;;10356184;28;19928;-77
2023/06/15 15:37:27;;;;;;;;;;;;;;;;;;10347144;28;19929;-77
2023/06/15 15:42:28;;;;;;;;;;;;;;;;;;10345365;28;20008;-76
2023/06/15 15:47:30;;;;;;;;;;;;;;;;;;10345003;28;20007;-77
2023/06/15 15:52:31;;;;;;;;;;;;;;;;;;10348172;28;20072;-76
2023/06/15 15:57:32;;;;;;;;;;;;;;;;;;10340868;28;19917;-77
2023/06/15 16:02:36;;;;;;;;;;;;;;;;;;10344722;28;20004;-77
2023/06/15 16:07:37;;;;;;;;;;;;;;;;;;10365501;28;19918;-76
2023/06/15 16:12:38;;;;;;;;;;;;;;;;;;10332477;28;19925;-78
2023/06/15 16:17:40;;;;;;;;;;;;;;;;;;10326785;28;19921;-76
2023/06/15 16:22:41;;;;;;;;;;;;;;;;;;10316973;28;19924;-75
2023/06/15 16:27:42;;;;;;;;;;;;;;;;;;10337210;28;19949;-76
2023/06/15 16:32:43;;;;;;;;;;;;;;;;;;10335722;28;19932;-76
2023/06/15 16:37:44;;;;;;;;;;;;;;;;;;10333308;28;20549;-74
2023/06/15 16:42:45;;;;;;;;;;;;;;;;;;10333729;28;19921;-74
2023/06/15 16:47:46;;;;;;;;;;;;;;;;;;10329618;28;20302;-74
2023/06/15 16:52:47;;;;;;;;;;;;;;;;;;10331432;28;20383;-74
2023/06/15 16:57:48;;;;;;;;;;;;;;;;;;10332061;28;19925;-74
2023/06/15 17:02:49;;;;;;;;;;;;;;;;;;10326569;28;19917;-74
2023/06/15 17:07:50;;;;;;;;;;;;;;;;;;10329630;28;19939;-74
2023/06/15 17:12:51;;;;;;;;;;;;;;;;;;10332147;28;19921;-74
2023/06/15 17:17:52;;;;;;;;;;;;;;;;;;10343806;28;19917;-74
2023/06/15 17:22:53;;;;;;;;;;;;;;;;;;10335372;28;20253;-75
2023/06/15 17:27:54;;;;;;;;;;;;;;;;;;10338017;28;19991;-73
2023/06/15 17:32:55;;;;;;;;;;;;;;;;;;10340103;28;19992;-74
2023/06/15 17:37:56;;;;;;;;;;;;;;;;;;10327230;28;19980;-74
2023/06/15 17:42:57;;;;;;;;;;;;;;;;;;10340768;28;19917;-73
2023/06/15 17:47:58;;;;;;;;;;;;;;;;;;10337055;28;19921;-73
2023/06/15 17:52:58;;;;;;;;;;;;;;;;;;10324369;28;21514;-75
2023/06/15 17:57:59;;;;;;;;;;;;;;;;;;10341863;28;19925;-74
2023/06/15 18:03:02;;;;;;;;;;;;;;;;;;10340280;28;19982;-74
2023/06/15 18:08:03;;;;;;;;;;;;;;;;;;10334828;28;19921;-74
2023/06/15 18:13:04;;;;;;;;;;;;;;;;;;10335070;28;20531;-74
2023/06/15 18:18:05;;;;;;;;;;;;;;;;;;10332926;28;20047;-74
2023/06/15 18:23:06;;;;;;;;;;;;;;;;;;10330832;28;19921;-74
2023/06/15 18:28:07;;;;;;;;;;;;;;;;;;10348956;28;19921;-73
2023/06/15 18:33:08;;;;;;;;;;;;;;;;;;10343944;28;19925;-74
2023/06/15 18:38:10;;;;;;;;;;;;;;;;;;10331125;28;20457;-73
2023/06/15 18:43:11;;;;;;;;;;;;;;;;;;10334399;28;19984;-76
2023/06/15 18:48:12;;;;;;;;;;;;;;;;;;10337267;28;19995;-73
2023/06/15 18:53:12;;;;;;;;;;;;;;;;;;10331325;28;19913;-77
2023/06/15 18:58:13;;;;;;;;;;;;;;;;;;10329802;28;19921;-75
2023/06/15 19:03:14;;;;;;;;;;;;;;;;;;10322107;28;19917;-74
2023/06/15 19:08:16;;;;;;;;;;;;;;;;;;10322756;28;20387;-74
2023/06/15 19:13:22;;;;;;;;;;;;;;;;;;10349719;28;19952;-75
2023/06/15 19:18:23;;;;;;;;;;;;;;;;;;10336994;28;19921;-74
2023/06/15 19:23:24;;;;;;;;;;;;;;;;;;10326009;28;20395;-75
2023/06/15 19:28:25;;;;;;;;;;;;;;;;;;10333726;28;19917;-74
2023/06/15 19:33:26;;;;;;;;;;;;;;;;;;10343838;28;20618;-74
2023/06/15 19:38:27;;;;;;;;;;;;;;;;;;10340156;28;19940;-74
2023/06/15 19:43:28;;;;;;;;;;;;;;;;;;10336547;28;20036;-74
2023/06/15 19:48:29;;;;;;;;;;;;;;;;;;10330825;28;19939;-77
2023/06/15 19:53:33;;;;;;;;;;;;;;;;;;10331424;28;20619;-75
2023/06/15 19:58:34;;;;;;;;;;;;;;;;;;10332725;28;20551;-74
2023/06/15 20:03:35;;;;;;;;;;;;;;;;;;10322351;28;19975;-75
2023/06/15 20:08:36;;;;;;;;;;;;;;;;;;10332983;28;20525;-75
2023/06/15 20:13:37;;;;;;;1.10;1.10;;;;;;;;;;10337536;28;19963;-75
2023/06/15 20:18:38;;;;;;;;;;;;;;;;;;10340962;28;20239;-75
2023/06/15 20:23:39;;;;;;;;;;;;;;;;;;10354446;28;19924;-75
2023/06/15 20:28:40;;;;;;;;;;;;;;;;;;10354737;28;19913;-75
2023/06/15 20:33:43;;;;;;;;;;;;;;;;;;10338108;28;20671;-74
2023/06/15 20:38:45;;;;;;;;;;;;;;;;;;10340958;28;20057;-74
2023/06/15 20:43:45;;;;;;;;;;;;;;;;;;10341597;28;19923;-74
2023/06/15 20:48:46;;;;;;;;;;;;;;;;;;10334224;28;19919;-74
2023/06/15 20:53:47;;;;;;;;;;;;;;;;;;10347769;28;20467;-74
2023/06/15 20:58:48;;;;;;;;;;;;;;;;;;10345486;28;19928;-74
2023/06/15 21:03:49;;;;;;;;;;;;;;;;;;10347291;28;20511;-75
2023/06/15 21:08:51;;;;;;;;;;;;;;;;;;10327999;28;20736;-73
2023/06/15 21:13:52;;;;;;;;;;;;;;;;;;10350198;28;19928;-76
2023/06/15 21:18:53;;;;;;;;;;;;;;;;;;10352532;28;19917;-74
2023/06/15 21:23:54;;;;;;;;;;;;;;;;;;10343291;28;19975;-74
2023/06/15 21:28:55;;;;;;;;;;;;;;;;;;10352597;28;20368;-77
2023/06/15 21:33:56;;;;;;;;;;;;;;;;;;10341684;28;19929;-74
2023/06/15 21:38:57;;;;;;;;;;;;;;;;;;10335743;28;20012;-74
2023/06/15 21:43:58;;;;;;;;;;;;;;;;;;10337897;28;19928;-74
2023/06/15 21:48:59;;;;;;;;;;;;;;;;;;10340726;28;20124;-73
2023/06/15 21:54:00;;;;;;;;;;;;;;;;;;10338804;28;20511;-72
2023/06/15 21:59:01;;;;;;;;;;;;;;;;;;10334330;28;20387;-74
2023/06/15 22:04:04;;;;;;;;;;;;;;;;;;10333389;28;19922;-73
2023/06/15 22:09:07;;;;;;;;;;;;;;;;;;10346778;28;20736;-73
2023/06/15 22:14:08;;;;;;;;;;;;;;;;;;10343517;28;19922;-75
2023/06/15 22:19:09;;;;;;;;;;;;;;;;;;10347098;28;19928;-73
2023/06/15 22:24:10;;;;;;;;;;;;;;;;;;10345755;28;20399;-74
2023/06/15 22:29:11;;;;;;;;;;;;;;;;;;10347946;28;19924;-74
2023/06/15 22:34:12;;;;;;;;;;;;;;;;;;10348311;28;19966;-73
2023/06/15 22:39:13;;;;;;;;;;;;;;;;;;10356610;28;20368;-74
2023/06/15 22:44:14;;;;;;;;;;;;;;;;;;10334557;28;19918;-74
2023/06/15 22:49:15;;;;;;;;;;;;;;;;;;10339939;28;19984;-72
2023/06/15 22:54:16;;;;;;;;;;;;;;;;;;10333847;28;19924;-74
2023/06/15 22:59:17;;;;;;;;;;;;;;;;;;10333768;28;21477;-74
2023/06/15 23:04:18;;;;;;;;;;;;;;;;;;10341890;28;20494;-75
2023/06/15 23:09:19;;;;;;;;;;;;;;;;;;10344957;28;19917;-73
2023/06/15 23:14:20;;;;;;;;;;;;;;;;;;10340736;28;19920;-74
2023/06/15 23:19:23;;;;;;;;;;;;;;;;;;10336281;28;20130;-73
2023/06/15 23:24:24;;;;;;;;;;;;;;;;;;10336863;28;19921;-72
2023/06/15 23:29:25;;;;;;;;;;;;;;;;;;10337099;28;19917;-73
2023/06/15 23:34:26;;;;;;;;;;;;;;;;;;10329392;28;19917;-73
2023/06/15 23:39:26;;;;;;;;;;;;;;;;;;10335480;28;19925;-73
2023/06/15 23:44:27;;;;;;;;;;;;;;;;;;10335525;28;19928;-73
2023/06/15 23:49:28;;;;;;;;;;;;;;;;;;10312567;28;19925;-76
2023/06/15 23:54:29;;;;;;;;;;;;;;;;;;10331021;28;19932;-74
2023/06/15 23:59:30;;;;;;;;;;;;;;;;;;10336463;28;20384;-74
